createdAt,value
2019-05-14T00:02:21.444Z,86.50
2019-05-14T00:04:52.117Z,87.40
2019-05-14T00:07:23.230Z,87.20
2019-05-14T00:09:54.982Z,86.90
2019-05-14T00:12:26.070Z,86.70
2019-05-14T00:14:57.263Z,86.60
2019-05-14T00:17:28.839Z,86.20
2019-05-14T00:20:07.392Z,86.10
2019-05-14T00:22:32.193Z,86.10
2019-05-14T00:25:03.714Z,85.80
2019-05-14T00:27:34.978Z,86.10
2019-05-14T00:30:07.328Z,86.40
2019-05-14T00:32:38.490Z,85.90
2019-05-14T00:35:11.155Z,85.90
2019-05-14T00:37:42.286Z,85.60
2019-05-14T00:40:13.762Z,85.60
2019-05-14T00:42:45.072Z,85.50
2019-05-14T00:45:17.194Z,85.40
2019-05-14T00:47:48.429Z,85.30
2019-05-14T00:50:21.460Z,85.10
2019-05-14T00:52:52.233Z,85.00
2019-05-14T00:55:23.148Z,85.00
2019-05-14T00:57:54.415Z,84.80
2019-05-14T01:00:25.558Z,85.00
2019-05-14T01:02:56.880Z,84.80
2019-05-14T01:05:27.844Z,84.50
2019-05-14T01:07:58.947Z,84.30
2019-05-14T01:10:31.373Z,84.40
2019-05-14T01:13:04.016Z,84.20
2019-05-14T01:15:35.273Z,84.00
2019-05-14T01:18:11.306Z,83.90
2019-05-14T01:20:43.030Z,83.70
2019-05-14T01:23:21.687Z,83.60
2019-05-14T01:25:52.380Z,83.40
2019-05-14T01:28:24.426Z,83.30
2019-05-14T01:30:56.929Z,83.30
2019-05-14T01:33:32.529Z,83.10
2019-05-14T01:36:03.623Z,82.60
2019-05-14T01:38:34.352Z,82.60
2019-05-14T01:41:06.305Z,82.80
2019-05-14T01:43:39.009Z,82.90
2019-05-14T01:59:17.417Z,82.00
2019-05-14T02:01:51.711Z,82.60
2019-05-14T02:04:28.688Z,81.50
2019-05-14T02:07:16.585Z,81.60
2019-05-14T02:09:47.150Z,81.60
2019-05-14T02:12:22.472Z,81.70
2019-05-14T02:15:08.742Z,81.50
2019-05-14T02:17:43.463Z,81.00
2019-05-14T02:20:21.407Z,80.90
2019-05-14T02:22:53.478Z,81.00
2019-05-14T02:25:29.285Z,80.60
2019-05-14T02:28:01.646Z,80.80
2019-05-14T02:30:51.179Z,80.30
2019-05-14T02:33:09.370Z,80.00
2019-05-14T02:35:42.036Z,79.80
2019-05-14T02:38:19.175Z,79.80
2019-05-14T02:40:49.902Z,79.60
2019-05-14T02:43:22.396Z,79.50
2019-05-14T02:46:09.100Z,79.00
2019-05-14T02:48:29.766Z,80.00
2019-05-14T02:51:00.837Z,79.10
2019-05-14T02:53:38.884Z,78.20
2019-05-14T02:56:10.391Z,78.50
2019-05-14T02:58:41.525Z,78.30
2019-05-14T03:01:14.304Z,78.10
2019-05-14T03:03:49.567Z,78.40
2019-05-14T03:06:21.099Z,78.20
2019-05-14T03:08:52.419Z,78.70
2019-05-14T03:11:23.739Z,78.00
2019-05-14T03:13:54.741Z,78.20
2019-05-14T03:16:31.057Z,78.30
2019-05-14T03:19:00.826Z,78.00
2019-05-14T03:21:31.594Z,78.10
2019-05-14T03:24:02.876Z,77.90
2019-05-14T03:26:33.882Z,77.80
2019-05-14T03:29:05.127Z,77.40
2019-05-14T03:31:36.327Z,77.70
2019-05-14T03:34:12.654Z,77.80
2019-05-14T03:36:42.985Z,78.40
2019-05-14T03:39:13.020Z,77.50
2019-05-14T03:41:44.987Z,77.80
2019-05-14T03:47:39.388Z,77.40
2019-05-14T03:50:11.413Z,77.20
2019-05-14T03:52:43.095Z,76.20
2019-05-14T03:55:14.519Z,75.90
2019-05-14T03:57:45.659Z,76.20
2019-05-14T04:00:18.830Z,75.80
2019-05-14T04:02:50.428Z,75.70
2019-05-14T04:05:22.682Z,74.70
2019-05-14T04:07:55.119Z,75.20
2019-05-14T04:10:30.114Z,75.10
2019-05-14T04:13:02.157Z,75.40
2019-05-14T04:15:39.151Z,75.30
2019-05-14T04:18:15.332Z,74.80
2019-05-14T04:20:50.018Z,74.90
2019-05-14T04:23:21.615Z,73.70
2019-05-14T04:25:54.625Z,73.60
2019-05-14T04:31:42.266Z,72.10
2019-05-14T04:34:19.320Z,72.20
2019-05-14T04:36:50.281Z,72.50
2019-05-14T04:39:25.155Z,72.80
2019-05-14T04:48:27.066Z,71.40
2019-05-14T04:50:49.310Z,70.50
2019-05-14T04:53:22.459Z,71.40
2019-05-14T04:55:54.165Z,71.20
2019-05-14T04:58:25.519Z,70.80
2019-05-14T05:01:01.055Z,70.70
2019-05-14T05:03:40.820Z,71.20
2019-05-14T05:06:12.183Z,70.40
2019-05-14T05:08:43.154Z,70.30
2019-05-14T05:11:17.126Z,71.50
2019-05-14T05:13:48.817Z,71.20
2019-05-14T05:16:23.227Z,70.10
2019-05-14T05:18:54.954Z,70.80
2019-05-14T05:21:28.240Z,69.70
2019-05-14T05:23:58.948Z,70.30
2019-05-14T05:26:33.643Z,70.80
2019-05-14T05:29:10.547Z,70.60
2019-05-14T05:31:49.451Z,68.90
2019-05-14T05:34:20.832Z,69.20
2019-05-14T05:36:52.420Z,68.90
2019-05-14T05:39:24.180Z,68.80
2019-05-14T05:42:02.055Z,68.80
2019-05-14T05:44:34.180Z,67.50
2019-05-14T05:47:05.412Z,67.80
2019-05-14T05:49:40.021Z,68.50
2019-05-14T05:52:12.724Z,69.10
2019-05-14T05:54:44.240Z,68.40
2019-05-14T05:57:18.869Z,68.80
2019-05-14T05:59:51.889Z,68.50
2019-05-14T06:02:23.346Z,66.70
2019-05-14T06:04:59.339Z,68.50
2019-05-14T06:07:30.607Z,68.70
2019-05-14T06:10:03.571Z,67.40
2019-05-14T06:12:34.720Z,69.00
2019-05-14T06:15:08.698Z,65.10
2019-05-14T06:17:39.871Z,66.40
2019-05-14T06:20:11.348Z,64.10
2019-05-14T06:22:42.635Z,65.70
2019-05-14T06:25:13.936Z,66.70
2019-05-14T06:27:44.837Z,67.00
2019-05-14T06:30:18.295Z,66.80
2019-05-14T06:32:49.531Z,65.10
2019-05-14T06:35:21.100Z,67.50
2019-05-14T06:37:52.346Z,66.10
2019-05-14T06:40:23.783Z,66.70
2019-05-14T06:42:59.172Z,66.10
2019-05-14T06:45:30.896Z,65.30
2019-05-14T06:48:03.914Z,65.90
2019-05-14T06:50:39.438Z,65.50
2019-05-14T06:53:24.150Z,64.00
2019-05-14T06:55:55.486Z,64.20
2019-05-14T06:58:29.528Z,64.10
2019-05-14T07:00:59.639Z,64.30
2019-05-14T07:03:34.436Z,63.60
2019-05-14T07:06:05.553Z,63.70
2019-05-14T07:08:40.226Z,63.30
2019-05-14T07:11:15.391Z,64.30
2019-05-14T07:13:48.870Z,65.50
2019-05-14T07:16:20.499Z,65.80
2019-05-14T07:18:54.113Z,65.50
2019-05-14T07:21:25.297Z,65.80
2019-05-14T07:23:59.128Z,64.70
2019-05-14T07:26:32.186Z,65.30
2019-05-14T07:29:03.580Z,61.40
2019-05-14T07:31:34.716Z,64.70
2019-05-14T07:34:09.190Z,64.90
2019-05-14T07:36:40.475Z,64.80
2019-05-14T07:39:12.038Z,65.40
2019-05-14T07:41:43.521Z,65.60
2019-05-14T07:44:14.991Z,65.40
2019-05-14T07:46:48.336Z,65.00
2019-05-14T07:49:19.933Z,65.10
2019-05-14T07:51:51.131Z,65.00
2019-05-14T07:54:22.032Z,65.00
2019-05-14T07:56:53.181Z,66.10
2019-05-14T07:59:24.592Z,64.80
2019-05-14T08:02:01.275Z,65.10
2019-05-14T08:04:32.502Z,66.00
2019-05-14T08:07:11.023Z,65.00
2019-05-14T08:09:44.091Z,65.90
2019-05-14T08:12:19.206Z,66.40
2019-05-14T08:15:13.173Z,66.40
2019-05-14T08:17:23.619Z,66.60
2019-05-14T08:19:55.300Z,65.80
2019-05-14T08:22:26.372Z,66.50
2019-05-14T08:24:58.083Z,66.70
2019-05-14T08:27:32.466Z,66.70
2019-05-14T08:30:03.705Z,66.90
2019-05-14T08:32:35.218Z,67.10
2019-05-14T08:35:09.074Z,66.90
2019-05-14T08:37:49.176Z,65.80
2019-05-14T08:40:23.302Z,65.30
2019-05-14T08:42:58.220Z,66.70
2019-05-14T08:45:32.178Z,67.70
2019-05-14T08:48:05.350Z,65.90
2019-05-14T08:50:38.807Z,66.40
2019-05-14T08:53:14.226Z,67.10
2019-05-14T08:55:44.115Z,67.60
2019-05-14T08:58:20.289Z,67.80
2019-05-14T09:00:51.859Z,68.10
2019-05-14T09:03:23.097Z,68.10
2019-05-14T09:06:00.693Z,68.90
2019-05-14T09:08:30.287Z,68.40
2019-05-14T09:11:02.869Z,68.40
2019-05-14T09:13:41.456Z,68.50
2019-05-14T09:16:43.210Z,68.50
2019-05-14T09:19:08.759Z,68.50
2019-05-14T09:21:40.418Z,68.50
2019-05-14T09:24:14.988Z,68.50
2019-05-14T09:26:48.618Z,68.40
2019-05-14T09:29:25.801Z,68.20
2019-05-14T09:31:52.808Z,68.20
2019-05-14T09:34:28.987Z,68.20
2019-05-14T09:37:02.563Z,68.40
2019-05-14T09:39:35.482Z,68.30
2019-05-14T09:42:08.127Z,68.30
2019-05-14T09:44:39.437Z,68.30
2019-05-14T09:47:12.015Z,68.30
2019-05-14T09:49:42.962Z,68.40
2019-05-14T09:52:14.325Z,68.50
2019-05-14T09:54:46.224Z,68.50
2019-05-14T09:57:18.929Z,68.30
2019-05-14T09:59:50.639Z,68.30
2019-05-14T10:02:22.584Z,67.90
2019-05-14T10:14:51.796Z,67.50
2019-05-14T10:17:22.957Z,67.40
2019-05-14T10:19:54.419Z,66.10
2019-05-14T10:22:25.678Z,65.70
2019-05-14T10:24:58.260Z,66.40
2019-05-14T10:27:29.428Z,66.60
2019-05-14T10:30:01.231Z,66.50
2019-05-14T10:32:32.643Z,66.60
2019-05-14T10:35:04.067Z,66.90
2019-05-14T10:37:35.514Z,67.20
2019-05-14T10:40:10.468Z,67.60
2019-05-14T10:42:43.435Z,68.00
2019-05-14T10:45:15.252Z,68.00
2019-05-14T10:47:49.251Z,68.30
2019-05-14T10:50:20.100Z,68.60
2019-05-14T10:52:51.168Z,68.70
2019-05-14T10:55:23.562Z,68.90
2019-05-14T10:57:54.667Z,69.20
2019-05-14T11:00:28.386Z,69.20
2019-05-14T11:02:58.961Z,69.50
2019-05-14T11:05:30.091Z,69.50
2019-05-14T11:08:01.556Z,69.70
2019-05-14T11:10:32.607Z,70.10
2019-05-14T11:13:08.951Z,70.40
2019-05-14T11:15:39.624Z,70.30
2019-05-14T11:18:11.046Z,70.90
2019-05-14T11:20:42.423Z,70.70
2019-05-14T11:23:15.225Z,70.80
2019-05-14T11:25:48.602Z,71.30
2019-05-14T11:28:19.095Z,71.40
2019-05-14T11:30:50.317Z,72.10
2019-05-14T11:33:21.314Z,72.40
2019-05-14T11:35:52.673Z,72.10
2019-05-14T11:38:33.347Z,72.10
2019-05-14T11:40:58.697Z,72.40
2019-05-14T11:43:29.072Z,72.50
2019-05-14T11:46:00.244Z,72.50
2019-05-14T11:48:31.413Z,73.30
2019-05-14T11:51:02.653Z,72.60
2019-05-14T11:53:38.559Z,72.90
2019-05-14T11:56:09.408Z,72.80
2019-05-14T11:58:40.749Z,72.90
2019-05-14T12:01:11.709Z,72.60
2019-05-14T12:03:44.981Z,73.30
2019-05-14T12:06:18.617Z,72.50
2019-05-14T12:08:49.895Z,72.50
2019-05-14T12:11:20.699Z,72.30
2019-05-14T12:13:51.705Z,72.30
2019-05-14T12:16:22.662Z,72.30
2019-05-14T12:18:53.576Z,72.20
2019-05-14T12:21:24.812Z,72.10
2019-05-14T12:24:03.096Z,72.10
2019-05-14T12:26:28.392Z,72.00
2019-05-14T12:28:59.572Z,72.00
2019-05-14T12:31:30.669Z,72.00
2019-05-14T12:34:03.092Z,72.00
2019-05-14T12:36:34.081Z,72.10
2019-05-14T12:39:09.298Z,72.10
2019-05-14T12:41:39.027Z,72.00
2019-05-14T12:44:10.029Z,72.00
2019-05-14T12:46:40.943Z,72.10
2019-05-14T12:49:11.967Z,72.10
2019-05-14T12:51:43.075Z,72.00
2019-05-14T12:54:14.260Z,72.20
2019-05-14T12:56:45.076Z,72.30
2019-05-14T12:59:16.301Z,72.60
2019-05-14T13:01:49.199Z,72.80
2019-05-14T13:04:20.074Z,72.70
2019-05-14T13:06:51.423Z,73.90
2019-05-14T13:09:22.522Z,73.90
2019-05-14T13:11:53.391Z,74.80
2019-05-14T13:14:24.625Z,74.30
2019-05-14T13:16:55.763Z,74.20
2019-05-14T13:19:28.351Z,74.80
2019-05-14T13:22:12.242Z,73.80
2019-05-14T13:24:31.416Z,75.00
2019-05-14T13:27:02.452Z,74.90
2019-05-14T13:29:33.503Z,74.60
2019-05-14T13:32:04.601Z,75.50
2019-05-14T13:34:35.634Z,75.40
2019-05-14T13:37:06.720Z,75.40
2019-05-14T13:39:39.922Z,75.90
2019-05-14T13:42:12.078Z,75.90
2019-05-14T13:44:42.582Z,76.00
2019-05-14T13:47:13.585Z,75.80
2019-05-14T13:49:44.802Z,76.30
2019-05-14T13:52:18.529Z,76.00
2019-05-14T13:54:48.785Z,76.30
2019-05-14T13:57:19.731Z,76.40
2019-05-14T13:59:50.803Z,76.10
2019-05-14T14:02:21.920Z,76.00
2019-05-14T14:04:53.002Z,76.10
2019-05-14T14:07:23.851Z,75.50
2019-05-14T14:09:54.960Z,75.80
2019-05-14T14:12:31.802Z,75.50
2019-05-14T14:14:58.728Z,75.80
2019-05-14T14:17:30.031Z,76.40
2019-05-14T14:20:00.951Z,76.30
2019-05-14T14:22:31.929Z,76.70
2019-05-14T14:25:02.964Z,76.90
2019-05-14T14:27:34.444Z,77.30
2019-05-14T14:30:09.267Z,76.50
2019-05-14T14:32:40.552Z,76.20
2019-05-14T14:35:12.415Z,77.00
2019-05-14T14:37:43.553Z,77.90
2019-05-14T14:40:14.720Z,77.70
2019-05-14T14:42:49.251Z,77.80
2019-05-14T14:45:21.680Z,77.80
2019-05-14T14:47:53.062Z,78.40
2019-05-14T14:50:24.237Z,78.50
2019-05-14T14:52:55.177Z,77.50
2019-05-14T14:55:26.048Z,78.10
2019-05-14T14:57:57.082Z,78.20
2019-05-14T15:00:29.428Z,77.60
2019-05-14T15:03:00.411Z,78.10
2019-05-14T15:05:32.404Z,77.70
2019-05-14T15:08:03.317Z,77.40
2019-05-14T15:10:35.017Z,78.90
2019-05-14T15:13:06.206Z,77.50
2019-05-14T15:15:39.248Z,78.00
2019-05-14T15:18:12.017Z,78.30
2019-05-14T15:20:42.392Z,79.00
2019-05-14T15:23:13.578Z,80.00
2019-05-14T15:25:44.778Z,79.60
2019-05-14T15:28:18.736Z,78.80
2019-05-14T15:30:49.956Z,78.00
2019-05-14T15:33:20.671Z,77.90
2019-05-14T15:35:51.839Z,77.50
2019-05-14T15:38:22.833Z,78.30
2019-05-14T15:40:53.965Z,78.40
2019-05-14T15:43:25.197Z,78.50
2019-05-14T15:45:55.895Z,78.70
2019-05-14T15:48:27.118Z,79.00
2019-05-14T15:50:59.991Z,78.90
2019-05-14T15:53:30.937Z,78.80
2019-05-14T15:56:03.214Z,78.60
2019-05-14T15:58:34.319Z,78.70
2019-05-14T16:01:06.207Z,78.50
2019-05-14T16:03:41.393Z,79.10
2019-05-14T16:06:10.615Z,79.60
2019-05-14T16:08:44.543Z,79.90
2019-05-14T16:11:18.369Z,79.50
2019-05-14T16:13:49.455Z,78.90
2019-05-14T16:16:22.114Z,79.80
2019-05-14T16:18:53.874Z,80.30
2019-05-14T16:21:25.038Z,81.00
2019-05-14T16:23:58.696Z,80.20
2019-05-14T16:26:29.344Z,79.70
2019-05-14T16:29:00.580Z,79.70
2019-05-14T16:31:41.897Z,79.60
2019-05-14T16:34:09.812Z,79.90
2019-05-14T16:36:41.429Z,79.90
2019-05-14T16:39:12.701Z,80.00
2019-05-14T16:41:43.618Z,81.00
2019-05-14T16:44:14.729Z,80.70
2019-05-14T16:46:46.486Z,80.20
2019-05-14T16:49:18.529Z,80.30
2019-05-14T16:51:50.270Z,80.40
2019-05-14T16:54:21.516Z,80.20
2019-05-14T16:56:52.585Z,80.40
2019-05-14T16:59:23.686Z,80.50
2019-05-14T17:01:54.568Z,81.00
2019-05-14T17:04:25.761Z,80.60
2019-05-14T17:06:58.963Z,80.10
2019-05-14T17:09:28.988Z,80.90
2019-05-14T17:12:01.344Z,80.90
2019-05-14T17:14:32.609Z,81.50
2019-05-14T17:17:03.429Z,82.00
2019-05-14T17:19:34.720Z,81.80
2019-05-14T17:22:23.254Z,81.70
2019-05-14T17:24:39.850Z,80.40
2019-05-14T17:27:10.642Z,80.60
2019-05-14T17:29:41.627Z,80.60
2019-05-14T17:32:12.575Z,80.40
2019-05-14T17:34:43.554Z,81.10
2019-05-14T17:37:14.764Z,81.40
2019-05-14T17:39:45.625Z,82.40
2019-05-14T17:42:19.107Z,82.70
2019-05-14T17:44:49.103Z,83.00
2019-05-14T17:47:19.980Z,82.10
2019-05-14T17:49:50.875Z,81.80
2019-05-14T17:52:22.212Z,80.80
2019-05-14T17:54:54.721Z,80.60
2019-05-14T17:57:26.102Z,80.50
2019-05-14T17:59:58.363Z,81.30
2019-05-14T18:02:30.476Z,82.10
2019-05-14T18:05:01.824Z,81.70
2019-05-14T18:07:34.480Z,81.30
2019-05-14T18:10:08.779Z,81.30
2019-05-14T18:12:40.092Z,80.40
2019-05-14T18:15:11.335Z,80.70
2019-05-14T18:17:43.561Z,80.30
2019-05-14T18:20:14.941Z,80.60
2019-05-14T18:22:45.968Z,80.40
2019-05-14T18:25:18.346Z,80.30
2019-05-14T18:27:50.296Z,81.60
2019-05-14T18:30:21.411Z,81.00
2019-05-14T18:32:52.739Z,80.80
2019-05-14T18:35:23.779Z,81.30
2019-05-14T18:37:54.779Z,81.30
2019-05-14T18:40:27.986Z,81.50
2019-05-14T18:42:59.047Z,81.70
2019-05-14T18:45:30.417Z,82.30
2019-05-14T18:48:01.492Z,82.20
2019-05-14T18:50:32.609Z,81.90
2019-05-14T18:53:03.908Z,81.60
2019-05-14T18:55:34.755Z,82.00
2019-05-14T18:58:05.808Z,81.40
2019-05-14T19:00:38.849Z,81.70
2019-05-14T19:03:09.251Z,81.70
2019-05-14T19:05:40.466Z,82.10
2019-05-14T19:08:11.227Z,82.50
2019-05-14T19:10:42.279Z,82.30
2019-05-14T19:13:13.339Z,82.10
2019-05-14T19:15:44.598Z,82.20
2019-05-14T19:18:15.608Z,82.10
2019-05-14T19:20:48.433Z,82.10
2019-05-14T19:23:18.945Z,82.70
2019-05-14T19:25:50.036Z,82.50
2019-05-14T19:28:20.914Z,82.80
2019-05-14T19:30:51.912Z,82.70
2019-05-14T19:33:22.874Z,82.70
2019-05-14T19:35:53.899Z,82.20
2019-05-14T19:38:25.077Z,82.10
2019-05-14T19:40:55.901Z,82.10
2019-05-14T19:43:28.988Z,82.30
2019-05-14T19:45:59.163Z,82.20
2019-05-14T19:48:32.765Z,83.20
2019-05-14T19:51:02.835Z,83.40
2019-05-14T19:53:33.930Z,82.60
2019-05-14T19:56:04.875Z,82.10
2019-05-14T19:58:38.165Z,82.30
2019-05-14T20:01:09.267Z,83.00
2019-05-14T20:03:40.667Z,83.00
2019-05-14T20:06:11.664Z,82.90
2019-05-14T20:08:42.789Z,82.60
2019-05-14T20:11:13.759Z,83.10
2019-05-14T20:13:44.823Z,83.00
2019-05-14T20:16:18.289Z,83.90
2019-05-14T20:18:48.895Z,82.40
2019-05-14T20:21:20.304Z,82.10
2019-05-14T20:23:54.320Z,83.00
2019-05-14T20:26:28.156Z,83.40
2019-05-14T20:28:59.134Z,83.50
2019-05-14T20:31:30.081Z,83.70
2019-05-14T20:34:00.979Z,83.10
2019-05-14T20:36:32.297Z,82.80
2019-05-14T20:39:03.219Z,82.30
2019-05-14T20:41:34.306Z,83.50
2019-05-14T20:44:07.822Z,83.90
2019-05-14T20:46:38.673Z,84.70
2019-05-14T20:49:09.679Z,84.20
2019-05-14T20:51:40.901Z,84.50
2019-05-14T20:54:12.153Z,85.80
2019-05-14T20:56:43.252Z,85.50
2019-05-14T20:59:14.547Z,85.10
2019-05-14T21:01:45.609Z,85.50
2019-05-14T21:04:18.700Z,86.10
2019-05-14T21:06:49.031Z,86.10
2019-05-14T21:09:23.610Z,86.60
2019-05-14T21:11:54.604Z,87.80
2019-05-14T21:14:25.770Z,86.10
2019-05-14T21:16:57.629Z,86.70
2019-05-14T21:19:28.740Z,86.20
2019-05-14T21:22:01.153Z,86.20
2019-05-14T21:24:32.294Z,86.60
2019-05-14T21:27:06.385Z,86.20
2019-05-14T21:29:38.223Z,86.40
2019-05-14T21:32:09.567Z,86.60
2019-05-14T21:34:40.539Z,86.70
2019-05-14T21:37:11.655Z,86.40
2019-05-14T21:39:42.840Z,86.50
2019-05-14T21:42:13.653Z,86.10
2019-05-14T21:44:45.948Z,87.00
2019-05-14T21:47:16.981Z,87.70
2019-05-14T21:49:48.381Z,86.90
2019-05-14T21:52:19.553Z,86.90
2019-05-14T21:54:50.623Z,86.90
2019-05-14T21:57:21.409Z,86.70
2019-05-14T21:59:52.617Z,86.80
2019-05-14T22:02:27.468Z,86.50
2019-05-14T22:04:58.254Z,86.90
2019-05-14T22:07:28.612Z,86.70
2019-05-14T22:10:00.009Z,86.30
2019-05-14T22:12:31.382Z,87.20
2019-05-14T22:15:02.470Z,86.60
2019-05-14T22:17:33.425Z,86.50
2019-05-14T22:20:08.105Z,86.30
2019-05-14T22:22:39.114Z,87.30
2019-05-14T22:25:10.621Z,86.00
2019-05-14T22:27:41.561Z,85.90
2019-05-14T22:30:12.842Z,85.80
2019-05-14T22:32:44.244Z,86.80
2019-05-14T22:35:18.535Z,86.10
2019-05-14T22:37:48.821Z,86.30
2019-05-14T22:40:19.853Z,85.90
2019-05-14T22:42:50.684Z,85.70
2019-05-14T22:45:21.882Z,85.50
2019-05-14T22:47:52.660Z,86.30
2019-05-14T22:50:23.863Z,86.40
2019-05-14T22:52:54.770Z,85.90
2019-05-14T22:55:25.660Z,85.70
2019-05-14T22:57:58.981Z,85.90
2019-05-14T23:00:29.232Z,85.70
2019-05-14T23:03:00.264Z,85.20
2019-05-14T23:05:31.448Z,87.30
2019-05-14T23:08:02.663Z,86.00
2019-05-14T23:10:33.564Z,86.40
2019-05-14T23:13:04.790Z,86.00
2019-05-14T23:15:35.815Z,86.30
2019-05-14T23:18:08.553Z,85.90
2019-05-14T23:20:39.424Z,86.30
2019-05-14T23:23:10.603Z,86.20
2019-05-14T23:25:44.601Z,85.70
2019-05-14T23:28:15.498Z,85.50
2019-05-14T23:30:48.115Z,86.20
2019-05-14T23:33:19.308Z,86.20
2019-05-14T23:35:50.282Z,84.90
2019-05-14T23:38:21.640Z,85.70
2019-05-14T23:40:52.676Z,85.50
2019-05-14T23:43:23.905Z,85.00
2019-05-14T23:45:54.923Z,84.50
2019-05-14T23:48:29.040Z,84.00
2019-05-14T23:51:02.146Z,85.00
2019-05-14T23:53:36.013Z,84.20
2019-05-14T23:56:08.561Z,85.70
2019-05-14T23:58:54.019Z,84.60
